sensor_id;sensor_type;location;lat;lon;timestamp;P1;durP1;ratioP1;P2;durP2;ratioP2
31073;SDS011;17730;53.552;9.940;2022-09-17T00:01:57;48.45;;;5.95;;
31073;SDS011;17730;53.552;9.940;2022-09-17T00:04:22;39.67;;;6.13;;
31073;SDS011;17730;53.552;9.940;2022-09-17T00:06:48;36.10;;;5.43;;
31073;SDS011;17730;53.552;9.940;2022-09-17T00:09:13;42.58;;;5.78;;
31073;SDS011;17730;53.552;9.940;2022-09-17T00:11:40;37.28;;;5.40;;
31073;SDS011;17730;53.552;9.940;2022-09-17T00:14:07;38.85;;;5.88;;
31073;SDS011;17730;53.552;9.940;2022-09-17T00:16:39;42.47;;;6.32;;
31073;SDS011;17730;53.552;9.940;2022-09-17T00:19:09;43.30;;;5.43;;
31073;SDS011;17730;53.552;9.940;2022-09-17T00:21:39;40.67;;;5.10;;
31073;SDS011;17730;53.552;9.940;2022-09-17T00:24:06;32.65;;;5.30;;
31073;SDS011;17730;53.552;9.940;2022-09-17T00:26:32;35.65;;;5.70;;
31073;SDS011;17730;53.552;9.940;2022-09-17T00:28:59;39.25;;;6.00;;
31073;SDS011;17730;53.552;9.940;2022-09-17T00:31:25;55.40;;;5.97;;
31073;SDS011;17730;53.552;9.940;2022-09-17T00:33:52;34.30;;;4.93;;
31073;SDS011;17730;53.552;9.940;2022-09-17T00:36:18;32.78;;;4.53;;
31073;SDS011;17730;53.552;9.940;2022-09-17T00:38:47;28.50;;;4.22;;
31073;SDS011;17730;53.552;9.940;2022-09-17T00:41:14;28.48;;;3.80;;
31073;SDS011;17730;53.552;9.940;2022-09-17T00:49:12;34.08;;;5.85;;
31073;SDS011;17730;53.552;9.940;2022-09-17T00:51:48;36.10;;;5.43;;
31073;SDS011;17730;53.552;9.940;2022-09-17T00:54:21;32.45;;;5.32;;
31073;SDS011;17730;53.552;9.940;2022-09-17T00:56:48;36.38;;;4.35;;
31073;SDS011;17730;53.552;9.940;2022-09-17T00:59:16;28.13;;;4.30;;
31073;SDS011;17730;53.552;9.940;2022-09-17T01:01:43;25.73;;;5.20;;
31073;SDS011;17730;53.552;9.940;2022-09-17T01:04:17;36.60;;;4.50;;
31073;SDS011;17730;53.552;9.940;2022-09-17T01:26:30;35.70;;;5.53;;
31073;SDS011;17730;53.552;9.940;2022-09-17T01:32:07;32.42;;;4.15;;
31073;SDS011;17730;53.552;9.940;2022-09-17T01:34:41;35.22;;;4.57;;
31073;SDS011;17730;53.552;9.940;2022-09-17T01:37:14;38.17;;;4.38;;
31073;SDS011;17730;53.552;9.940;2022-09-17T01:39:51;31.75;;;3.40;;
31073;SDS011;17730;53.552;9.940;2022-09-17T01:42:26;26.08;;;4.63;;
31073;SDS011;17730;53.552;9.940;2022-09-17T01:48:17;26.15;;;3.83;;
31073;SDS011;17730;53.552;9.940;2022-09-17T01:50:51;29.00;;;4.15;;
31073;SDS011;17730;53.552;9.940;2022-09-17T01:53:22;26.15;;;4.53;;
31073;SDS011;17730;53.552;9.940;2022-09-17T01:55:52;30.98;;;3.85;;
31073;SDS011;17730;53.552;9.940;2022-09-17T01:58:28;31.15;;;5.35;;
31073;SDS011;17730;53.552;9.940;2022-09-17T02:01:00;27.38;;;4.00;;
31073;SDS011;17730;53.552;9.940;2022-09-17T02:03:39;26.88;;;3.45;;
31073;SDS011;17730;53.552;9.940;2022-09-17T02:06:28;32.95;;;4.15;;
31073;SDS011;17730;53.552;9.940;2022-09-17T02:09:00;28.00;;;3.60;;
31073;SDS011;17730;53.552;9.940;2022-09-17T02:11:32;35.40;;;5.38;;
31073;SDS011;17730;53.552;9.940;2022-09-17T02:14:23;25.05;;;4.28;;
31073;SDS011;17730;53.552;9.940;2022-09-17T02:16:53;21.98;;;3.03;;
31073;SDS011;17730;53.552;9.940;2022-09-17T02:19:28;28.77;;;4.18;;
31073;SDS011;17730;53.552;9.940;2022-09-17T02:30:41;29.88;;;4.15;;
31073;SDS011;17730;53.552;9.940;2022-09-17T02:33:08;29.50;;;4.15;;
31073;SDS011;17730;53.552;9.940;2022-09-17T02:35:37;35.00;;;4.50;;
31073;SDS011;17730;53.552;9.940;2022-09-17T02:38:03;28.70;;;4.13;;
31073;SDS011;17730;53.552;9.940;2022-09-17T02:40:30;31.00;;;3.72;;
31073;SDS011;17730;53.552;9.940;2022-09-17T02:45:35;24.10;;;3.30;;
31073;SDS011;17730;53.552;9.940;2022-09-17T02:48:45;26.00;;;3.42;;
31073;SDS011;17730;53.552;9.940;2022-09-17T03:00:12;29.95;;;3.78;;
31073;SDS011;17730;53.552;9.940;2022-09-17T03:02:52;24.27;;;3.75;;
31073;SDS011;17730;53.552;9.940;2022-09-17T03:05:37;21.98;;;3.50;;
31073;SDS011;17730;53.552;9.940;2022-09-17T03:08:07;30.38;;;4.25;;
31073;SDS011;17730;53.552;9.940;2022-09-17T03:10:36;25.95;;;4.10;;
31073;SDS011;17730;53.552;9.940;2022-09-17T03:13:02;28.25;;;3.63;;
31073;SDS011;17730;53.552;9.940;2022-09-17T03:15:28;17.80;;;3.13;;
31073;SDS011;17730;53.552;9.940;2022-09-17T03:17:53;25.13;;;3.45;;
31073;SDS011;17730;53.552;9.940;2022-09-17T03:20:19;24.30;;;3.97;;
31073;SDS011;17730;53.552;9.940;2022-09-17T03:22:45;35.47;;;4.60;;
31073;SDS011;17730;53.552;9.940;2022-09-17T03:25:11;21.60;;;4.75;;
31073;SDS011;17730;53.552;9.940;2022-09-17T03:27:36;19.80;;;3.78;;
31073;SDS011;17730;53.552;9.940;2022-09-17T03:30:02;25.88;;;3.35;;
31073;SDS011;17730;53.552;9.940;2022-09-17T03:32:28;28.20;;;4.80;;
31073;SDS011;17730;53.552;9.940;2022-09-17T03:34:54;18.10;;;3.00;;
31073;SDS011;17730;53.552;9.940;2022-09-17T03:37:20;22.05;;;3.45;;
31073;SDS011;17730;53.552;9.940;2022-09-17T03:39:46;19.73;;;3.67;;
31073;SDS011;17730;53.552;9.940;2022-09-17T03:42:11;32.70;;;4.32;;
31073;SDS011;17730;53.552;9.940;2022-09-17T03:44:37;25.58;;;4.25;;
31073;SDS011;17730;53.552;9.940;2022-09-17T03:47:02;24.33;;;4.22;;
31073;SDS011;17730;53.552;9.940;2022-09-17T03:49:28;26.90;;;4.10;;
31073;SDS011;17730;53.552;9.940;2022-09-17T03:51:54;28.02;;;4.50;;
31073;SDS011;17730;53.552;9.940;2022-09-17T03:54:19;17.58;;;2.55;;
31073;SDS011;17730;53.552;9.940;2022-09-17T03:56:45;22.63;;;2.83;;
31073;SDS011;17730;53.552;9.940;2022-09-17T03:59:10;18.10;;;2.90;;
31073;SDS011;17730;53.552;9.940;2022-09-17T04:01:36;16.65;;;3.00;;
31073;SDS011;17730;53.552;9.940;2022-09-17T04:04:02;13.73;;;2.70;;
31073;SDS011;17730;53.552;9.940;2022-09-17T04:06:28;20.05;;;3.17;;
31073;SDS011;17730;53.552;9.940;2022-09-17T04:08:53;18.45;;;2.63;;
31073;SDS011;17730;53.552;9.940;2022-09-17T04:11:20;20.60;;;2.45;;
31073;SDS011;17730;53.552;9.940;2022-09-17T04:13:46;25.48;;;3.53;;
31073;SDS011;17730;53.552;9.940;2022-09-17T04:16:12;10.18;;;2.65;;
31073;SDS011;17730;53.552;9.940;2022-09-17T04:18:38;12.82;;;2.65;;
31073;SDS011;17730;53.552;9.940;2022-09-17T04:21:03;25.38;;;3.70;;
31073;SDS011;17730;53.552;9.940;2022-09-17T04:23:30;16.20;;;2.47;;
31073;SDS011;17730;53.552;9.940;2022-09-17T04:25:55;27.05;;;3.35;;
31073;SDS011;17730;53.552;9.940;2022-09-17T04:28:21;20.50;;;4.38;;
31073;SDS011;17730;53.552;9.940;2022-09-17T04:30:47;20.25;;;3.30;;
31073;SDS011;17730;53.552;9.940;2022-09-17T04:33:13;20.67;;;3.10;;
31073;SDS011;17730;53.552;9.940;2022-09-17T04:35:39;21.27;;;3.10;;
31073;SDS011;17730;53.552;9.940;2022-09-17T04:38:05;26.65;;;3.75;;
31073;SDS011;17730;53.552;9.940;2022-09-17T04:40:30;19.45;;;3.05;;
31073;SDS011;17730;53.552;9.940;2022-09-17T04:42:56;17.65;;;2.95;;
31073;SDS011;17730;53.552;9.940;2022-09-17T04:45:24;21.67;;;2.83;;
31073;SDS011;17730;53.552;9.940;2022-09-17T04:47:50;19.38;;;2.92;;
31073;SDS011;17730;53.552;9.940;2022-09-17T04:50:17;18.15;;;3.33;;
31073;SDS011;17730;53.552;9.940;2022-09-17T04:52:43;26.83;;;3.40;;
31073;SDS011;17730;53.552;9.940;2022-09-17T04:55:10;26.25;;;2.95;;
31073;SDS011;17730;53.552;9.940;2022-09-17T04:57:36;21.77;;;2.78;;
31073;SDS011;17730;53.552;9.940;2022-09-17T05:00:03;26.15;;;4.72;;
31073;SDS011;17730;53.552;9.940;2022-09-17T05:02:31;25.40;;;4.32;;
31073;SDS011;17730;53.552;9.940;2022-09-17T05:04:57;23.42;;;3.00;;
31073;SDS011;17730;53.552;9.940;2022-09-17T05:07:23;28.85;;;2.80;;
31073;SDS011;17730;53.552;9.940;2022-09-17T05:09:49;21.77;;;2.92;;
31073;SDS011;17730;53.552;9.940;2022-09-17T05:12:15;27.02;;;3.45;;
31073;SDS011;17730;53.552;9.940;2022-09-17T05:14:40;20.38;;;3.20;;
31073;SDS011;17730;53.552;9.940;2022-09-17T05:17:06;22.45;;;3.40;;
31073;SDS011;17730;53.552;9.940;2022-09-17T05:19:32;24.42;;;3.70;;
31073;SDS011;17730;53.552;9.940;2022-09-17T05:21:57;19.05;;;3.22;;
31073;SDS011;17730;53.552;9.940;2022-09-17T05:24:23;22.17;;;2.50;;
31073;SDS011;17730;53.552;9.940;2022-09-17T05:26:49;16.90;;;3.25;;
31073;SDS011;17730;53.552;9.940;2022-09-17T05:29:14;25.75;;;3.65;;
31073;SDS011;17730;53.552;9.940;2022-09-17T05:31:40;20.25;;;4.22;;
31073;SDS011;17730;53.552;9.940;2022-09-17T05:34:07;23.77;;;2.78;;
31073;SDS011;17730;53.552;9.940;2022-09-17T05:36:33;23.40;;;3.70;;
31073;SDS011;17730;53.552;9.940;2022-09-17T05:38:58;26.42;;;2.88;;
31073;SDS011;17730;53.552;9.940;2022-09-17T05:41:24;19.73;;;2.95;;
31073;SDS011;17730;53.552;9.940;2022-09-17T05:43:50;30.02;;;3.70;;
31073;SDS011;17730;53.552;9.940;2022-09-17T05:46:15;25.13;;;2.95;;
31073;SDS011;17730;53.552;9.940;2022-09-17T05:48:41;27.08;;;3.75;;
31073;SDS011;17730;53.552;9.940;2022-09-17T05:51:07;15.18;;;2.40;;
31073;SDS011;17730;53.552;9.940;2022-09-17T05:53:33;24.90;;;4.22;;
31073;SDS011;17730;53.552;9.940;2022-09-17T05:55:59;20.48;;;2.28;;
31073;SDS011;17730;53.552;9.940;2022-09-17T05:58:24;17.30;;;2.45;;
31073;SDS011;17730;53.552;9.940;2022-09-17T06:00:51;22.77;;;3.35;;
31073;SDS011;17730;53.552;9.940;2022-09-17T06:03:17;17.13;;;3.08;;
31073;SDS011;17730;53.552;9.940;2022-09-17T06:05:54;19.17;;;3.35;;
31073;SDS011;17730;53.552;9.940;2022-09-17T06:08:22;18.38;;;2.58;;
31073;SDS011;17730;53.552;9.940;2022-09-17T06:10:48;18.60;;;2.83;;
31073;SDS011;17730;53.552;9.940;2022-09-17T06:13:14;17.23;;;2.13;;
31073;SDS011;17730;53.552;9.940;2022-09-17T06:15:47;20.38;;;3.58;;
31073;SDS011;17730;53.552;9.940;2022-09-17T06:18:17;22.48;;;3.05;;
31073;SDS011;17730;53.552;9.940;2022-09-17T06:20:51;18.17;;;2.30;;
31073;SDS011;17730;53.552;9.940;2022-09-17T06:23:19;19.23;;;2.80;;
31073;SDS011;17730;53.552;9.940;2022-09-17T06:25:55;21.67;;;2.58;;
31073;SDS011;17730;53.552;9.940;2022-09-17T06:28:22;26.05;;;2.80;;
31073;SDS011;17730;53.552;9.940;2022-09-17T06:30:48;25.00;;;3.30;;
31073;SDS011;17730;53.552;9.940;2022-09-17T06:33:18;15.40;;;2.55;;
31073;SDS011;17730;53.552;9.940;2022-09-17T06:35:44;14.48;;;2.45;;
31073;SDS011;17730;53.552;9.940;2022-09-17T06:38:10;20.00;;;3.35;;
31073;SDS011;17730;53.552;9.940;2022-09-17T06:40:35;23.08;;;2.42;;
31073;SDS011;17730;53.552;9.940;2022-09-17T06:43:01;23.88;;;2.70;;
31073;SDS011;17730;53.552;9.940;2022-09-17T06:45:27;17.88;;;2.50;;
31073;SDS011;17730;53.552;9.940;2022-09-17T06:47:53;12.10;;;1.92;;
31073;SDS011;17730;53.552;9.940;2022-09-17T06:50:19;10.52;;;1.88;;
31073;SDS011;17730;53.552;9.940;2022-09-17T06:52:48;16.98;;;2.50;;
31073;SDS011;17730;53.552;9.940;2022-09-17T06:55:14;13.05;;;2.03;;
31073;SDS011;17730;53.552;9.940;2022-09-17T06:57:40;8.07;;;1.50;;
31073;SDS011;17730;53.552;9.940;2022-09-17T07:00:06;12.45;;;1.90;;
31073;SDS011;17730;53.552;9.940;2022-09-17T07:02:33;17.35;;;2.05;;
31073;SDS011;17730;53.552;9.940;2022-09-17T07:04:59;8.40;;;1.90;;
31073;SDS011;17730;53.552;9.940;2022-09-17T07:07:25;14.60;;;1.58;;
31073;SDS011;17730;53.552;9.940;2022-09-17T07:09:51;7.57;;;1.45;;
31073;SDS011;17730;53.552;9.940;2022-09-17T07:12:18;11.90;;;1.45;;
31073;SDS011;17730;53.552;9.940;2022-09-17T07:14:44;6.97;;;0.95;;
31073;SDS011;17730;53.552;9.940;2022-09-17T07:17:10;9.90;;;1.42;;
31073;SDS011;17730;53.552;9.940;2022-09-17T07:19:36;13.18;;;1.90;;
31073;SDS011;17730;53.552;9.940;2022-09-17T07:22:02;10.10;;;1.55;;
31073;SDS011;17730;53.552;9.940;2022-09-17T07:24:27;5.35;;;1.42;;
31073;SDS011;17730;53.552;9.940;2022-09-17T07:26:53;5.03;;;1.10;;
31073;SDS011;17730;53.552;9.940;2022-09-17T07:29:19;9.93;;;1.23;;
31073;SDS011;17730;53.552;9.940;2022-09-17T07:31:47;4.93;;;1.60;;
31073;SDS011;17730;53.552;9.940;2022-09-17T07:34:13;7.28;;;1.38;;
31073;SDS011;17730;53.552;9.940;2022-09-17T07:36:38;9.05;;;1.60;;
31073;SDS011;17730;53.552;9.940;2022-09-17T07:39:04;9.73;;;1.65;;
31073;SDS011;17730;53.552;9.940;2022-09-17T07:41:30;13.15;;;1.90;;
31073;SDS011;17730;53.552;9.940;2022-09-17T07:43:56;9.45;;;1.40;;
31073;SDS011;17730;53.552;9.940;2022-09-17T07:46:22;7.82;;;2.08;;
31073;SDS011;17730;53.552;9.940;2022-09-17T07:48:48;6.82;;;1.35;;
31073;SDS011;17730;53.552;9.940;2022-09-17T07:51:14;10.68;;;2.03;;
31073;SDS011;17730;53.552;9.940;2022-09-17T07:53:41;7.95;;;1.40;;
31073;SDS011;17730;53.552;9.940;2022-09-17T07:56:07;10.48;;;1.80;;
31073;SDS011;17730;53.552;9.940;2022-09-17T07:58:33;14.35;;;1.92;;
31073;SDS011;17730;53.552;9.940;2022-09-17T08:01:04;17.95;;;2.17;;
31073;SDS011;17730;53.552;9.940;2022-09-17T08:03:32;11.55;;;2.72;;
31073;SDS011;17730;53.552;9.940;2022-09-17T08:06:05;11.27;;;2.10;;
31073;SDS011;17730;53.552;9.940;2022-09-17T08:08:33;11.05;;;1.88;;
31073;SDS011;17730;53.552;9.940;2022-09-17T08:11:06;15.50;;;2.28;;
31073;SDS011;17730;53.552;9.940;2022-09-17T08:13:32;17.23;;;2.33;;
31073;SDS011;17730;53.552;9.940;2022-09-17T08:16:02;15.27;;;2.33;;
31073;SDS011;17730;53.552;9.940;2022-09-17T08:18:29;16.20;;;2.35;;
31073;SDS011;17730;53.552;9.940;2022-09-17T08:20:58;12.90;;;2.60;;
31073;SDS011;17730;53.552;9.940;2022-09-17T08:23:26;14.95;;;2.47;;
31073;SDS011;17730;53.552;9.940;2022-09-17T08:25:55;15.25;;;2.00;;
31073;SDS011;17730;53.552;9.940;2022-09-17T08:28:23;19.20;;;2.45;;
31073;SDS011;17730;53.552;9.940;2022-09-17T08:30:49;14.98;;;2.35;;
31073;SDS011;17730;53.552;9.940;2022-09-17T08:33:16;21.92;;;2.55;;
31073;SDS011;17730;53.552;9.940;2022-09-17T08:35:54;14.00;;;2.47;;
31073;SDS011;17730;53.552;9.940;2022-09-17T08:38:23;14.48;;;2.05;;
31073;SDS011;17730;53.552;9.940;2022-09-17T08:40:54;13.65;;;2.30;;
31073;SDS011;17730;53.552;9.940;2022-09-17T08:43:40;14.60;;;1.75;;
31073;SDS011;17730;53.552;9.940;2022-09-17T08:46:25;12.88;;;2.70;;
31073;SDS011;17730;53.552;9.940;2022-09-17T08:49:09;15.80;;;2.85;;
31073;SDS011;17730;53.552;9.940;2022-09-17T08:51:51;15.43;;;1.75;;
31073;SDS011;17730;53.552;9.940;2022-09-17T08:57:06;11.43;;;2.30;;
31073;SDS011;17730;53.552;9.940;2022-09-17T09:00:10;10.15;;;1.92;;
31073;SDS011;17730;53.552;9.940;2022-09-17T09:02:42;11.60;;;1.52;;
31073;SDS011;17730;53.552;9.940;2022-09-17T09:05:44;6.30;;;1.05;;
31073;SDS011;17730;53.552;9.940;2022-09-17T09:08:33;5.50;;;1.02;;
31073;SDS011;17730;53.552;9.940;2022-09-17T09:11:04;6.82;;;1.00;;
31073;SDS011;17730;53.552;9.940;2022-09-17T09:13:40;14.85;;;1.27;;
31073;SDS011;17730;53.552;9.940;2022-09-17T09:16:19;9.90;;;1.85;;
31073;SDS011;17730;53.552;9.940;2022-09-17T09:18:54;8.63;;;1.50;;
31073;SDS011;17730;53.552;9.940;2022-09-17T09:21:37;10.85;;;1.02;;
31073;SDS011;17730;53.552;9.940;2022-09-17T09:26:42;11.57;;;2.35;;
31073;SDS011;17730;53.552;9.940;2022-09-17T09:29:12;7.22;;;1.27;;
31073;SDS011;17730;53.552;9.940;2022-09-17T09:34:36;6.95;;;1.27;;
31073;SDS011;17730;53.552;9.940;2022-09-17T09:37:11;2.50;;;0.88;;
31073;SDS011;17730;53.552;9.940;2022-09-17T09:39:49;2.90;;;0.70;;
31073;SDS011;17730;53.552;9.940;2022-09-17T09:42:30;4.28;;;0.90;;
31073;SDS011;17730;53.552;9.940;2022-09-17T09:45:05;1.90;;;0.50;;
31073;SDS011;17730;53.552;9.940;2022-09-17T09:50:37;3.25;;;1.33;;
31073;SDS011;17730;53.552;9.940;2022-09-17T09:56:20;10.90;;;1.35;;
31073;SDS011;17730;53.552;9.940;2022-09-17T09:59:09;3.47;;;1.10;;
31073;SDS011;17730;53.552;9.940;2022-09-17T10:01:38;4.47;;;0.98;;
31073;SDS011;17730;53.552;9.940;2022-09-17T10:04:20;5.88;;;1.08;;
31073;SDS011;17730;53.552;9.940;2022-09-17T10:06:51;5.67;;;1.00;;
31073;SDS011;17730;53.552;9.940;2022-09-17T10:09:19;6.00;;;0.70;;
31073;SDS011;17730;53.552;9.940;2022-09-17T10:14:39;10.90;;;1.48;;
31073;SDS011;17730;53.552;9.940;2022-09-17T10:19:37;4.85;;;1.20;;
31073;SDS011;17730;53.552;9.940;2022-09-17T10:22:17;10.05;;;1.58;;
31073;SDS011;17730;53.552;9.940;2022-09-17T10:24:55;5.13;;;1.10;;
31073;SDS011;17730;53.552;9.940;2022-09-17T10:27:23;8.52;;;1.55;;
31073;SDS011;17730;53.552;9.940;2022-09-17T10:29:51;5.40;;;1.10;;
31073;SDS011;17730;53.552;9.940;2022-09-17T10:32:39;8.25;;;1.08;;
31073;SDS011;17730;53.552;9.940;2022-09-17T10:35:14;7.15;;;0.98;;
31073;SDS011;17730;53.552;9.940;2022-09-17T10:37:50;7.30;;;1.10;;
31073;SDS011;17730;53.552;9.940;2022-09-17T10:42:46;4.07;;;1.10;;
31073;SDS011;17730;53.552;9.940;2022-09-17T10:45:23;5.85;;;1.10;;
31073;SDS011;17730;53.552;9.940;2022-09-17T10:47:50;3.50;;;0.90;;
31073;SDS011;17730;53.552;9.940;2022-09-17T10:50:17;5.40;;;1.00;;
31073;SDS011;17730;53.552;9.940;2022-09-17T10:52:51;5.15;;;1.58;;
31073;SDS011;17730;53.552;9.940;2022-09-17T11:05:51;9.05;;;2.75;;
31073;SDS011;17730;53.552;9.940;2022-09-17T11:23:19;5.78;;;1.58;;
31073;SDS011;17730;53.552;9.940;2022-09-17T11:26:04;13.00;;;2.10;;
31073;SDS011;17730;53.552;9.940;2022-09-17T11:34:43;8.48;;;1.67;;
31073;SDS011;17730;53.552;9.940;2022-09-17T11:37:08;7.97;;;1.30;;
31073;SDS011;17730;53.552;9.940;2022-09-17T11:42:28;5.70;;;1.48;;
31073;SDS011;17730;53.552;9.940;2022-09-17T11:44:58;9.60;;;1.40;;
31073;SDS011;17730;53.552;9.940;2022-09-17T11:47:29;4.60;;;1.60;;
31073;SDS011;17730;53.552;9.940;2022-09-17T11:50:00;5.72;;;1.35;;
31073;SDS011;17730;53.552;9.940;2022-09-17T11:52:31;4.45;;;1.63;;
31073;SDS011;17730;53.552;9.940;2022-09-17T11:55:24;5.15;;;1.60;;
31073;SDS011;17730;53.552;9.940;2022-09-17T11:57:55;9.55;;;2.03;;
31073;SDS011;17730;53.552;9.940;2022-09-17T12:00:27;7.43;;;1.63;;
31073;SDS011;17730;53.552;9.940;2022-09-17T12:02:59;10.65;;;1.73;;
31073;SDS011;17730;53.552;9.940;2022-09-17T12:08:09;7.15;;;2.25;;
31073;SDS011;17730;53.552;9.940;2022-09-17T12:10:56;9.23;;;2.08;;
31073;SDS011;17730;53.552;9.940;2022-09-17T12:16:18;13.57;;;2.67;;
31073;SDS011;17730;53.552;9.940;2022-09-17T12:21:17;11.32;;;1.90;;
31073;SDS011;17730;53.552;9.940;2022-09-17T12:23:50;8.55;;;1.92;;
31073;SDS011;17730;53.552;9.940;2022-09-17T12:26:25;12.45;;;2.55;;
31073;SDS011;17730;53.552;9.940;2022-09-17T12:40:27;11.25;;;2.63;;
31073;SDS011;17730;53.552;9.940;2022-09-17T12:45:50;9.90;;;2.28;;
31073;SDS011;17730;53.552;9.940;2022-09-17T12:48:42;15.75;;;3.05;;
31073;SDS011;17730;53.552;9.940;2022-09-17T12:51:41;12.35;;;2.63;;
31073;SDS011;17730;53.552;9.940;2022-09-17T12:54:45;13.75;;;3.63;;
31073;SDS011;17730;53.552;9.940;2022-09-17T13:00:13;16.98;;;3.20;;
31073;SDS011;17730;53.552;9.940;2022-09-17T13:02:45;12.30;;;2.45;;
31073;SDS011;17730;53.552;9.940;2022-09-17T13:21:50;18.92;;;2.47;;
31073;SDS011;17730;53.552;9.940;2022-09-17T13:24:35;12.32;;;2.53;;
31073;SDS011;17730;53.552;9.940;2022-09-17T13:27:02;9.80;;;2.42;;
31073;SDS011;17730;53.552;9.940;2022-09-17T13:29:55;10.52;;;1.83;;
31073;SDS011;17730;53.552;9.940;2022-09-17T13:40:27;9.70;;;1.73;;
31073;SDS011;17730;53.552;9.940;2022-09-17T13:45:30;11.13;;;1.98;;
31073;SDS011;17730;53.552;9.940;2022-09-17T13:48:04;10.05;;;1.67;;
31073;SDS011;17730;53.552;9.940;2022-09-17T13:50:40;15.20;;;3.65;;
31073;SDS011;17730;53.552;9.940;2022-09-17T13:58:20;12.55;;;2.88;;
31073;SDS011;17730;53.552;9.940;2022-09-17T14:00:56;10.80;;;1.83;;
31073;SDS011;17730;53.552;9.940;2022-09-17T14:11:51;10.40;;;1.85;;
31073;SDS011;17730;53.552;9.940;2022-09-17T14:24:25;15.30;;;5.53;;
31073;SDS011;17730;53.552;9.940;2022-09-17T14:32:13;7.32;;;1.70;;
31073;SDS011;17730;53.552;9.940;2022-09-17T14:34:44;4.97;;;1.38;;
31073;SDS011;17730;53.552;9.940;2022-09-17T14:37:12;4.43;;;1.73;;
31073;SDS011;17730;53.552;9.940;2022-09-17T14:39:46;6.32;;;2.53;;
31073;SDS011;17730;53.552;9.940;2022-09-17T14:42:14;5.15;;;1.60;;
31073;SDS011;17730;53.552;9.940;2022-09-17T14:44:56;7.97;;;3.42;;
31073;SDS011;17730;53.552;9.940;2022-09-17T14:47:26;4.55;;;1.30;;
31073;SDS011;17730;53.552;9.940;2022-09-17T14:49:52;12.10;;;5.10;;
31073;SDS011;17730;53.552;9.940;2022-09-17T14:52:26;10.20;;;3.28;;
31073;SDS011;17730;53.552;9.940;2022-09-17T14:55:09;6.80;;;1.83;;
31073;SDS011;17730;53.552;9.940;2022-09-17T14:57:55;7.47;;;2.33;;
31073;SDS011;17730;53.552;9.940;2022-09-17T15:00:24;12.50;;;2.67;;
31073;SDS011;17730;53.552;9.940;2022-09-17T15:02:58;12.57;;;4.70;;
31073;SDS011;17730;53.552;9.940;2022-09-17T15:05:28;16.17;;;4.88;;
31073;SDS011;17730;53.552;9.940;2022-09-17T15:08:06;26.08;;;11.25;;
31073;SDS011;17730;53.552;9.940;2022-09-17T15:13:33;25.08;;;8.45;;
31073;SDS011;17730;53.552;9.940;2022-09-17T15:16:05;14.52;;;5.68;;
31073;SDS011;17730;53.552;9.940;2022-09-17T15:18:46;12.52;;;5.65;;
31073;SDS011;17730;53.552;9.940;2022-09-17T15:21:42;8.30;;;2.47;;
31073;SDS011;17730;53.552;9.940;2022-09-17T15:27:13;30.67;;;12.85;;
31073;SDS011;17730;53.552;9.940;2022-09-17T15:29:50;14.00;;;4.40;;
31073;SDS011;17730;53.552;9.940;2022-09-17T15:32:19;17.58;;;5.43;;
31073;SDS011;17730;53.552;9.940;2022-09-17T15:37:43;24.33;;;8.30;;
31073;SDS011;17730;53.552;9.940;2022-09-17T15:45:54;15.40;;;4.63;;
31073;SDS011;17730;53.552;9.940;2022-09-17T15:51:00;22.88;;;10.52;;
31073;SDS011;17730;53.552;9.940;2022-09-17T15:53:28;15.32;;;7.20;;
31073;SDS011;17730;53.552;9.940;2022-09-17T15:58:28;14.13;;;7.03;;
31073;SDS011;17730;53.552;9.940;2022-09-17T16:08:50;19.02;;;7.63;;
31073;SDS011;17730;53.552;9.940;2022-09-17T16:11:19;17.38;;;6.00;;
31073;SDS011;17730;53.552;9.940;2022-09-17T16:13:49;19.80;;;7.18;;
31073;SDS011;17730;53.552;9.940;2022-09-17T16:16:17;18.40;;;7.95;;
31073;SDS011;17730;53.552;9.940;2022-09-17T16:18:47;42.97;;;19.83;;
31073;SDS011;17730;53.552;9.940;2022-09-17T16:21:14;27.30;;;11.55;;
31073;SDS011;17730;53.552;9.940;2022-09-17T16:23:42;13.13;;;6.20;;
31073;SDS011;17730;53.552;9.940;2022-09-17T16:26:14;13.77;;;6.55;;
31073;SDS011;17730;53.552;9.940;2022-09-17T16:28:42;18.88;;;7.80;;
31073;SDS011;17730;53.552;9.940;2022-09-17T16:31:13;23.27;;;9.55;;
31073;SDS011;17730;53.552;9.940;2022-09-17T16:33:39;33.05;;;14.35;;
31073;SDS011;17730;53.552;9.940;2022-09-17T16:36:05;56.50;;;21.70;;
31073;SDS011;17730;53.552;9.940;2022-09-17T16:38:31;50.08;;;20.27;;
31073;SDS011;17730;53.552;9.940;2022-09-17T16:40:57;24.13;;;10.30;;
31073;SDS011;17730;53.552;9.940;2022-09-17T16:43:23;22.30;;;9.25;;
31073;SDS011;17730;53.552;9.940;2022-09-17T16:45:58;11.50;;;3.95;;
31073;SDS011;17730;53.552;9.940;2022-09-17T16:48:25;17.40;;;8.65;;
31073;SDS011;17730;53.552;9.940;2022-09-17T16:50:50;35.88;;;21.33;;
31073;SDS011;17730;53.552;9.940;2022-09-17T16:53:16;39.08;;;17.90;;
31073;SDS011;17730;53.552;9.940;2022-09-17T16:55:42;21.73;;;7.95;;
31073;SDS011;17730;53.552;9.940;2022-09-17T16:58:08;11.07;;;3.70;;
31073;SDS011;17730;53.552;9.940;2022-09-17T17:00:34;16.15;;;5.10;;
31073;SDS011;17730;53.552;9.940;2022-09-17T17:03:01;23.13;;;8.38;;
31073;SDS011;17730;53.552;9.940;2022-09-17T17:05:27;47.40;;;21.50;;
31073;SDS011;17730;53.552;9.940;2022-09-17T17:07:53;18.50;;;6.07;;
31073;SDS011;17730;53.552;9.940;2022-09-17T17:10:19;20.48;;;7.22;;
31073;SDS011;17730;53.552;9.940;2022-09-17T17:12:45;19.20;;;7.93;;
31073;SDS011;17730;53.552;9.940;2022-09-17T17:15:11;20.58;;;6.80;;
31073;SDS011;17730;53.552;9.940;2022-09-17T17:17:37;15.15;;;5.43;;
31073;SDS011;17730;53.552;9.940;2022-09-17T17:20:04;10.07;;;3.45;;
31073;SDS011;17730;53.552;9.940;2022-09-17T17:22:37;54.17;;;23.02;;
31073;SDS011;17730;53.552;9.940;2022-09-17T17:25:04;11.63;;;3.50;;
31073;SDS011;17730;53.552;9.940;2022-09-17T17:27:31;25.52;;;12.85;;
31073;SDS011;17730;53.552;9.940;2022-09-17T17:29:58;21.88;;;10.18;;
31073;SDS011;17730;53.552;9.940;2022-09-17T17:32:26;6.95;;;3.92;;
31073;SDS011;17730;53.552;9.940;2022-09-17T17:34:52;16.33;;;8.07;;
31073;SDS011;17730;53.552;9.940;2022-09-17T17:37:18;30.83;;;13.38;;
31073;SDS011;17730;53.552;9.940;2022-09-17T17:39:45;19.45;;;7.88;;
31073;SDS011;17730;53.552;9.940;2022-09-17T17:42:11;27.23;;;9.05;;
31073;SDS011;17730;53.552;9.940;2022-09-17T17:44:37;36.10;;;15.38;;
31073;SDS011;17730;53.552;9.940;2022-09-17T17:47:02;20.13;;;9.65;;
31073;SDS011;17730;53.552;9.940;2022-09-17T17:49:30;34.35;;;15.57;;
31073;SDS011;17730;53.552;9.940;2022-09-17T17:51:58;37.83;;;16.77;;
31073;SDS011;17730;53.552;9.940;2022-09-17T17:54:24;21.95;;;7.00;;
31073;SDS011;17730;53.552;9.940;2022-09-17T17:56:52;9.75;;;3.05;;
31073;SDS011;17730;53.552;9.940;2022-09-17T17:59:18;12.18;;;5.07;;
31073;SDS011;17730;53.552;9.940;2022-09-17T18:01:43;47.00;;;19.02;;
31073;SDS011;17730;53.552;9.940;2022-09-17T18:04:09;16.83;;;6.68;;
31073;SDS011;17730;53.552;9.940;2022-09-17T18:06:35;62.33;;;28.63;;
31073;SDS011;17730;53.552;9.940;2022-09-17T18:09:01;13.73;;;6.10;;
31073;SDS011;17730;53.552;9.940;2022-09-17T18:11:27;26.90;;;11.48;;
31073;SDS011;17730;53.552;9.940;2022-09-17T18:13:54;35.85;;;14.63;;
31073;SDS011;17730;53.552;9.940;2022-09-17T18:16:21;18.88;;;8.10;;
31073;SDS011;17730;53.552;9.940;2022-09-17T18:18:48;18.25;;;6.35;;
31073;SDS011;17730;53.552;9.940;2022-09-17T18:21:19;12.93;;;5.70;;
31073;SDS011;17730;53.552;9.940;2022-09-17T18:23:47;20.48;;;8.50;;
31073;SDS011;17730;53.552;9.940;2022-09-17T18:26:21;9.30;;;4.47;;
31073;SDS011;17730;53.552;9.940;2022-09-17T18:28:48;34.50;;;14.85;;
31073;SDS011;17730;53.552;9.940;2022-09-17T18:34:01;34.75;;;14.80;;